sensor_id;sensor_type;location;lat;lon;timestamp;P1;durP1;ratioP1;P2;durP2;ratioP2
68655;SDS011;55638;51.122;13.606;2023-08-08T00:00:19;3.33;;;2.10;;
68655;SDS011;55638;51.122;13.606;2023-08-08T00:01:51;3.60;;;1.95;;
68655;SDS011;55638;51.122;13.606;2023-08-08T00:03:23;3.72;;;1.80;;
68655;SDS011;55638;51.122;13.606;2023-08-08T00:04:55;3.67;;;2.53;;
68655;SDS011;55638;51.122;13.606;2023-08-08T00:06:27;3.22;;;2.10;;
68655;SDS011;55638;51.122;13.606;2023-08-08T00:07:59;4.28;;;1.92;;
68655;SDS011;55638;51.122;13.606;2023-08-08T00:09:31;4.53;;;2.08;;
68655;SDS011;55638;51.122;13.606;2023-08-08T00:11:03;5.65;;;2.20;;
68655;SDS011;55638;51.122;13.606;2023-08-08T00:12:35;5.70;;;2.40;;
68655;SDS011;55638;51.122;13.606;2023-08-08T00:14:07;4.07;;;2.30;;
68655;SDS011;55638;51.122;13.606;2023-08-08T00:15:38;6.65;;;2.53;;
68655;SDS011;55638;51.122;13.606;2023-08-08T00:17:11;4.18;;;2.67;;
68655;SDS011;55638;51.122;13.606;2023-08-08T00:18:42;5.38;;;2.30;;
68655;SDS011;55638;51.122;13.606;2023-08-08T00:20:14;5.82;;;2.35;;
68655;SDS011;55638;51.122;13.606;2023-08-08T00:21:47;3.90;;;2.22;;
68655;SDS011;55638;51.122;13.606;2023-08-08T00:23:19;3.35;;;2.13;;
68655;SDS011;55638;51.122;13.606;2023-08-08T00:24:50;3.08;;;2.40;;
68655;SDS011;55638;51.122;13.606;2023-08-08T00:26:22;4.10;;;2.00;;
68655;SDS011;55638;51.122;13.606;2023-08-08T00:27:54;4.32;;;2.30;;
68655;SDS011;55638;51.122;13.606;2023-08-08T00:29:26;3.42;;;2.08;;
68655;SDS011;55638;51.122;13.606;2023-08-08T00:30:58;2.08;;;1.65;;
68655;SDS011;55638;51.122;13.606;2023-08-08T00:32:30;4.30;;;1.67;;
68655;SDS011;55638;51.122;13.606;2023-08-08T00:34:02;2.22;;;1.70;;
68655;SDS011;55638;51.122;13.606;2023-08-08T00:35:34;2.67;;;1.65;;
68655;SDS011;55638;51.122;13.606;2023-08-08T00:37:07;2.53;;;1.55;;
68655;SDS011;55638;51.122;13.606;2023-08-08T00:38:39;2.88;;;1.60;;
68655;SDS011;55638;51.122;13.606;2023-08-08T00:40:11;2.22;;;1.45;;
68655;SDS011;55638;51.122;13.606;2023-08-08T00:41:43;3.35;;;1.60;;
68655;SDS011;55638;51.122;13.606;2023-08-08T00:43:15;3.28;;;1.38;;
68655;SDS011;55638;51.122;13.606;2023-08-08T00:44:48;1.52;;;1.27;;
68655;SDS011;55638;51.122;13.606;2023-08-08T00:46:20;2.17;;;1.45;;
68655;SDS011;55638;51.122;13.606;2023-08-08T00:47:53;2.83;;;1.58;;
68655;SDS011;55638;51.122;13.606;2023-08-08T00:49:26;3.47;;;1.50;;
68655;SDS011;55638;51.122;13.606;2023-08-08T00:50:58;2.70;;;1.35;;
68655;SDS011;55638;51.122;13.606;2023-08-08T00:52:30;2.38;;;1.50;;
68655;SDS011;55638;51.122;13.606;2023-08-08T00:54:03;1.45;;;1.20;;
68655;SDS011;55638;51.122;13.606;2023-08-08T00:55:35;2.72;;;1.40;;
68655;SDS011;55638;51.122;13.606;2023-08-08T00:57:08;1.50;;;1.30;;
68655;SDS011;55638;51.122;13.606;2023-08-08T00:58:40;1.90;;;1.10;;
68655;SDS011;55638;51.122;13.606;2023-08-08T01:00:12;2.42;;;1.35;;
68655;SDS011;55638;51.122;13.606;2023-08-08T01:01:44;2.80;;;1.58;;
68655;SDS011;55638;51.122;13.606;2023-08-08T01:03:16;2.47;;;1.48;;
68655;SDS011;55638;51.122;13.606;2023-08-08T01:04:48;3.40;;;1.40;;
68655;SDS011;55638;51.122;13.606;2023-08-08T01:06:31;4.30;;;1.50;;
68655;SDS011;55638;51.122;13.606;2023-08-08T01:08:09;2.38;;;1.40;;
68655;SDS011;55638;51.122;13.606;2023-08-08T01:10:02;1.77;;;1.30;;
68655;SDS011;55638;51.122;13.606;2023-08-08T01:11:40;3.80;;;1.42;;
68655;SDS011;55638;51.122;13.606;2023-08-08T01:13:14;2.63;;;1.48;;
68655;SDS011;55638;51.122;13.606;2023-08-08T01:14:53;5.22;;;1.45;;
68655;SDS011;55638;51.122;13.606;2023-08-08T01:16:26;3.17;;;1.20;;
68655;SDS011;55638;51.122;13.606;2023-08-08T01:18:01;2.10;;;1.23;;
68655;SDS011;55638;51.122;13.606;2023-08-08T01:19:38;1.88;;;1.30;;
68655;SDS011;55638;51.122;13.606;2023-08-08T01:21:10;2.03;;;1.40;;
68655;SDS011;55638;51.122;13.606;2023-08-08T01:22:58;1.52;;;1.08;;
68655;SDS011;55638;51.122;13.606;2023-08-08T01:24:41;2.40;;;1.40;;
68655;SDS011;55638;51.122;13.606;2023-08-08T01:26:15;2.40;;;1.30;;
68655;SDS011;55638;51.122;13.606;2023-08-08T01:27:48;1.40;;;1.20;;
68655;SDS011;55638;51.122;13.606;2023-08-08T01:29:20;2.00;;;1.40;;
68655;SDS011;55638;51.122;13.606;2023-08-08T01:30:52;2.67;;;1.27;;
68655;SDS011;55638;51.122;13.606;2023-08-08T01:32:25;2.63;;;1.40;;
68655;SDS011;55638;51.122;13.606;2023-08-08T01:33:58;1.75;;;1.30;;
68655;SDS011;55638;51.122;13.606;2023-08-08T01:35:30;1.42;;;1.30;;
68655;SDS011;55638;51.122;13.606;2023-08-08T01:38:52;1.30;;;0.98;;
68655;SDS011;55638;51.122;13.606;2023-08-08T01:40:31;2.80;;;1.20;;
68655;SDS011;55638;51.122;13.606;2023-08-08T01:42:03;3.47;;;1.30;;
68655;SDS011;55638;51.122;13.606;2023-08-08T01:43:38;1.73;;;1.23;;
68655;SDS011;55638;51.122;13.606;2023-08-08T01:45:11;3.08;;;1.40;;
68655;SDS011;55638;51.122;13.606;2023-08-08T01:46:43;2.03;;;1.60;;
68655;SDS011;55638;51.122;13.606;2023-08-08T01:48:17;2.55;;;1.50;;
68655;SDS011;55638;51.122;13.606;2023-08-08T01:49:49;2.97;;;1.80;;
68655;SDS011;55638;51.122;13.606;2023-08-08T01:51:21;2.83;;;1.70;;
68655;SDS011;55638;51.122;13.606;2023-08-08T01:52:53;5.82;;;2.58;;
68655;SDS011;55638;51.122;13.606;2023-08-08T01:54:25;7.95;;;3.50;;
68655;SDS011;55638;51.122;13.606;2023-08-08T01:55:57;9.75;;;5.10;;
68655;SDS011;55638;51.122;13.606;2023-08-08T01:57:29;16.23;;;6.20;;
68655;SDS011;55638;51.122;13.606;2023-08-08T01:59:02;9.82;;;5.38;;
68655;SDS011;55638;51.122;13.606;2023-08-08T02:00:34;11.05;;;5.25;;
68655;SDS011;55638;51.122;13.606;2023-08-08T02:02:08;9.60;;;5.45;;
68655;SDS011;55638;51.122;13.606;2023-08-08T02:03:40;8.80;;;5.00;;
68655;SDS011;55638;51.122;13.606;2023-08-08T02:05:12;8.00;;;4.90;;
68655;SDS011;55638;51.122;13.606;2023-08-08T02:06:44;7.95;;;5.03;;
68655;SDS011;55638;51.122;13.606;2023-08-08T02:08:16;7.22;;;4.43;;
68655;SDS011;55638;51.122;13.606;2023-08-08T02:09:50;6.20;;;3.97;;
68655;SDS011;55638;51.122;13.606;2023-08-08T02:11:22;7.10;;;3.25;;
68655;SDS011;55638;51.122;13.606;2023-08-08T02:12:54;4.75;;;2.65;;
68655;SDS011;55638;51.122;13.606;2023-08-08T02:14:27;3.15;;;2.00;;
68655;SDS011;55638;51.122;13.606;2023-08-08T02:16:00;3.92;;;2.20;;
68655;SDS011;55638;51.122;13.606;2023-08-08T02:17:31;3.10;;;1.90;;
68655;SDS011;55638;51.122;13.606;2023-08-08T02:19:03;5.38;;;2.08;;
68655;SDS011;55638;51.122;13.606;2023-08-08T02:20:35;3.13;;;1.73;;
68655;SDS011;55638;51.122;13.606;2023-08-08T02:22:09;3.78;;;2.03;;
68655;SDS011;55638;51.122;13.606;2023-08-08T02:23:41;2.83;;;1.65;;
68655;SDS011;55638;51.122;13.606;2023-08-08T02:25:12;2.20;;;1.40;;
68655;SDS011;55638;51.122;13.606;2023-08-08T02:26:44;2.95;;;1.60;;
68655;SDS011;55638;51.122;13.606;2023-08-08T02:28:18;1.58;;;1.20;;
68655;SDS011;55638;51.122;13.606;2023-08-08T02:29:50;3.03;;;1.52;;
68655;SDS011;55638;51.122;13.606;2023-08-08T02:31:22;3.90;;;1.48;;
68655;SDS011;55638;51.122;13.606;2023-08-08T02:32:54;1.77;;;1.42;;
68655;SDS011;55638;51.122;13.606;2023-08-08T02:34:26;5.32;;;1.98;;
68655;SDS011;55638;51.122;13.606;2023-08-08T02:36:00;4.28;;;2.22;;
68655;SDS011;55638;51.122;13.606;2023-08-08T02:37:32;4.00;;;2.08;;
68655;SDS011;55638;51.122;13.606;2023-08-08T02:39:04;2.10;;;1.88;;
68655;SDS011;55638;51.122;13.606;2023-08-08T02:40:36;2.72;;;1.77;;
68655;SDS011;55638;51.122;13.606;2023-08-08T02:42:08;2.38;;;1.60;;
68655;SDS011;55638;51.122;13.606;2023-08-08T02:43:40;2.15;;;1.60;;
68655;SDS011;55638;51.122;13.606;2023-08-08T02:45:12;3.00;;;1.77;;
68655;SDS011;55638;51.122;13.606;2023-08-08T02:46:44;3.25;;;1.30;;
68655;SDS011;55638;51.122;13.606;2023-08-08T02:48:16;3.97;;;1.80;;
68655;SDS011;55638;51.122;13.606;2023-08-08T02:49:49;2.35;;;1.20;;
68655;SDS011;55638;51.122;13.606;2023-08-08T02:51:21;3.15;;;1.58;;
68655;SDS011;55638;51.122;13.606;2023-08-08T02:52:53;2.28;;;1.50;;
68655;SDS011;55638;51.122;13.606;2023-08-08T02:54:29;2.03;;;1.30;;
68655;SDS011;55638;51.122;13.606;2023-08-08T02:56:01;1.75;;;1.42;;
68655;SDS011;55638;51.122;13.606;2023-08-08T02:57:37;2.08;;;1.38;;
68655;SDS011;55638;51.122;13.606;2023-08-08T02:59:09;1.20;;;1.10;;
68655;SDS011;55638;51.122;13.606;2023-08-08T03:00:41;2.30;;;1.35;;
68655;SDS011;55638;51.122;13.606;2023-08-08T03:02:16;2.38;;;1.23;;
68655;SDS011;55638;51.122;13.606;2023-08-08T03:03:49;3.72;;;1.38;;
68655;SDS011;55638;51.122;13.606;2023-08-08T03:05:24;2.38;;;1.55;;
68655;SDS011;55638;51.122;13.606;2023-08-08T03:06:56;4.97;;;1.30;;
68655;SDS011;55638;51.122;13.606;2023-08-08T03:08:28;4.00;;;1.40;;
68655;SDS011;55638;51.122;13.606;2023-08-08T03:10:01;1.85;;;1.20;;
68655;SDS011;55638;51.122;13.606;2023-08-08T03:11:35;1.83;;;0.95;;
68655;SDS011;55638;51.122;13.606;2023-08-08T03:13:11;2.25;;;1.45;;
68655;SDS011;55638;51.122;13.606;2023-08-08T03:14:43;1.80;;;1.38;;
68655;SDS011;55638;51.122;13.606;2023-08-08T03:16:15;3.40;;;1.48;;
68655;SDS011;55638;51.122;13.606;2023-08-08T03:17:47;2.90;;;1.70;;
68655;SDS011;55638;51.122;13.606;2023-08-08T03:19:20;1.30;;;1.05;;
68655;SDS011;55638;51.122;13.606;2023-08-08T03:20:52;3.38;;;1.63;;
68655;SDS011;55638;51.122;13.606;2023-08-08T03:22:25;2.53;;;1.38;;
68655;SDS011;55638;51.122;13.606;2023-08-08T03:23:57;1.67;;;1.40;;
68655;SDS011;55638;51.122;13.606;2023-08-08T03:25:29;2.42;;;1.30;;
68655;SDS011;55638;51.122;13.606;2023-08-08T03:27:02;2.70;;;1.48;;
68655;SDS011;55638;51.122;13.606;2023-08-08T03:28:34;1.77;;;1.35;;
68655;SDS011;55638;51.122;13.606;2023-08-08T03:30:06;2.00;;;1.40;;
68655;SDS011;55638;51.122;13.606;2023-08-08T03:31:43;1.63;;;1.00;;
68655;SDS011;55638;51.122;13.606;2023-08-08T03:33:16;2.50;;;1.40;;
68655;SDS011;55638;51.122;13.606;2023-08-08T03:34:48;4.70;;;1.50;;
68655;SDS011;55638;51.122;13.606;2023-08-08T03:36:20;2.00;;;1.35;;
68655;SDS011;55638;51.122;13.606;2023-08-08T03:37:52;2.10;;;1.20;;
68655;SDS011;55638;51.122;13.606;2023-08-08T03:39:24;1.70;;;1.10;;
68655;SDS011;55638;51.122;13.606;2023-08-08T03:40:56;1.75;;;1.30;;
68655;SDS011;55638;51.122;13.606;2023-08-08T03:42:28;2.05;;;1.13;;
68655;SDS011;55638;51.122;13.606;2023-08-08T03:44:01;2.50;;;1.38;;
68655;SDS011;55638;51.122;13.606;2023-08-08T03:45:34;1.60;;;1.23;;
68655;SDS011;55638;51.122;13.606;2023-08-08T03:47:06;2.05;;;1.25;;
68655;SDS011;55638;51.122;13.606;2023-08-08T03:48:50;2.20;;;1.42;;
68655;SDS011;55638;51.122;13.606;2023-08-08T03:50:25;2.40;;;1.20;;
68655;SDS011;55638;51.122;13.606;2023-08-08T03:51:56;2.20;;;1.50;;
68655;SDS011;55638;51.122;13.606;2023-08-08T03:53:29;1.63;;;1.10;;
68655;SDS011;55638;51.122;13.606;2023-08-08T03:55:01;1.60;;;1.10;;
68655;SDS011;55638;51.122;13.606;2023-08-08T03:56:34;1.85;;;1.20;;
68655;SDS011;55638;51.122;13.606;2023-08-08T03:58:06;1.67;;;1.23;;
68655;SDS011;55638;51.122;13.606;2023-08-08T03:59:38;2.03;;;1.35;;
68655;SDS011;55638;51.122;13.606;2023-08-08T04:01:10;1.45;;;1.15;;
68655;SDS011;55638;51.122;13.606;2023-08-08T04:02:44;2.00;;;1.17;;
68655;SDS011;55638;51.122;13.606;2023-08-08T04:04:15;2.00;;;1.10;;
68655;SDS011;55638;51.122;13.606;2023-08-08T04:05:47;2.75;;;1.15;;
68655;SDS011;55638;51.122;13.606;2023-08-08T04:07:19;1.40;;;1.10;;
68655;SDS011;55638;51.122;13.606;2023-08-08T04:08:52;2.92;;;1.35;;
68655;SDS011;55638;51.122;13.606;2023-08-08T04:10:25;1.85;;;1.17;;
68655;SDS011;55638;51.122;13.606;2023-08-08T04:11:57;1.70;;;1.30;;
68655;SDS011;55638;51.122;13.606;2023-08-08T04:13:29;1.70;;;1.02;;
68655;SDS011;55638;51.122;13.606;2023-08-08T04:15:01;2.03;;;1.30;;
68655;SDS011;55638;51.122;13.606;2023-08-08T04:16:35;1.80;;;1.10;;
68655;SDS011;55638;51.122;13.606;2023-08-08T04:18:07;1.50;;;1.10;;
68655;SDS011;55638;51.122;13.606;2023-08-08T04:19:39;2.22;;;1.00;;
68655;SDS011;55638;51.122;13.606;2023-08-08T04:21:11;1.98;;;1.02;;
68655;SDS011;55638;51.122;13.606;2023-08-08T04:22:43;1.35;;;1.00;;
68655;SDS011;55638;51.122;13.606;2023-08-08T04:24:15;2.33;;;1.20;;
68655;SDS011;55638;51.122;13.606;2023-08-08T04:25:47;2.38;;;1.30;;
68655;SDS011;55638;51.122;13.606;2023-08-08T04:27:19;2.80;;;1.17;;
68655;SDS011;55638;51.122;13.606;2023-08-08T04:28:51;1.90;;;0.93;;
68655;SDS011;55638;51.122;13.606;2023-08-08T04:30:23;1.60;;;1.08;;
68655;SDS011;55638;51.122;13.606;2023-08-08T04:31:55;2.22;;;1.10;;
68655;SDS011;55638;51.122;13.606;2023-08-08T04:33:27;1.33;;;1.08;;
68655;SDS011;55638;51.122;13.606;2023-08-08T04:34:59;2.58;;;1.20;;
68655;SDS011;55638;51.122;13.606;2023-08-08T04:36:32;2.20;;;1.17;;
68655;SDS011;55638;51.122;13.606;2023-08-08T04:38:03;2.00;;;1.27;;
68655;SDS011;55638;51.122;13.606;2023-08-08T04:39:35;2.42;;;1.40;;
68655;SDS011;55638;51.122;13.606;2023-08-08T04:41:07;2.05;;;1.40;;
68655;SDS011;55638;51.122;13.606;2023-08-08T04:42:39;2.47;;;1.52;;
68655;SDS011;55638;51.122;13.606;2023-08-08T04:44:11;1.70;;;1.50;;
68655;SDS011;55638;51.122;13.606;2023-08-08T04:45:43;1.70;;;1.33;;
68655;SDS011;55638;51.122;13.606;2023-08-08T04:47:15;3.33;;;1.48;;
68655;SDS011;55638;51.122;13.606;2023-08-08T04:48:47;2.53;;;1.40;;
68655;SDS011;55638;51.122;13.606;2023-08-08T04:50:19;1.88;;;1.52;;
68655;SDS011;55638;51.122;13.606;2023-08-08T04:51:51;2.95;;;1.33;;
68655;SDS011;55638;51.122;13.606;2023-08-08T04:53:23;2.30;;;1.50;;
68655;SDS011;55638;51.122;13.606;2023-08-08T04:54:55;2.90;;;1.55;;
68655;SDS011;55638;51.122;13.606;2023-08-08T04:56:26;2.38;;;1.40;;
68655;SDS011;55638;51.122;13.606;2023-08-08T04:58:01;2.45;;;1.30;;
68655;SDS011;55638;51.122;13.606;2023-08-08T04:59:33;3.53;;;1.60;;
68655;SDS011;55638;51.122;13.606;2023-08-08T05:01:04;1.90;;;1.50;;
68655;SDS011;55638;51.122;13.606;2023-08-08T05:02:36;4.05;;;2.53;;
68655;SDS011;55638;51.122;13.606;2023-08-08T05:04:11;4.07;;;2.13;;
68655;SDS011;55638;51.122;13.606;2023-08-08T05:05:43;4.15;;;2.03;;
68655;SDS011;55638;51.122;13.606;2023-08-08T05:07:16;2.28;;;1.52;;
68655;SDS011;55638;51.122;13.606;2023-08-08T05:08:49;2.00;;;1.52;;
68655;SDS011;55638;51.122;13.606;2023-08-08T05:10:23;3.28;;;1.50;;
68655;SDS011;55638;51.122;13.606;2023-08-08T05:11:55;2.55;;;1.75;;
68655;SDS011;55638;51.122;13.606;2023-08-08T05:13:27;2.42;;;1.70;;
68655;SDS011;55638;51.122;13.606;2023-08-08T05:14:59;3.17;;;1.50;;
68655;SDS011;55638;51.122;13.606;2023-08-08T05:16:31;2.55;;;1.52;;
68655;SDS011;55638;51.122;13.606;2023-08-08T05:18:03;1.73;;;1.60;;
68655;SDS011;55638;51.122;13.606;2023-08-08T05:19:35;2.60;;;1.35;;
68655;SDS011;55638;51.122;13.606;2023-08-08T05:21:07;1.55;;;1.17;;
68655;SDS011;55638;51.122;13.606;2023-08-08T05:22:39;1.63;;;0.98;;
68655;SDS011;55638;51.122;13.606;2023-08-08T05:24:11;1.63;;;1.25;;
68655;SDS011;55638;51.122;13.606;2023-08-08T05:25:43;2.20;;;1.10;;
68655;SDS011;55638;51.122;13.606;2023-08-08T05:27:17;1.73;;;1.48;;
68655;SDS011;55638;51.122;13.606;2023-08-08T05:28:49;1.80;;;1.23;;
68655;SDS011;55638;51.122;13.606;2023-08-08T05:30:21;1.65;;;1.30;;
68655;SDS011;55638;51.122;13.606;2023-08-08T05:31:53;2.50;;;1.88;;
68655;SDS011;55638;51.122;13.606;2023-08-08T05:33:25;1.83;;;1.15;;
68655;SDS011;55638;51.122;13.606;2023-08-08T05:34:57;2.00;;;1.10;;
68655;SDS011;55638;51.122;13.606;2023-08-08T05:36:29;1.73;;;1.10;;
68655;SDS011;55638;51.122;13.606;2023-08-08T05:38:01;1.13;;;0.88;;
68655;SDS011;55638;51.122;13.606;2023-08-08T05:39:33;1.30;;;1.20;;
68655;SDS011;55638;51.122;13.606;2023-08-08T05:41:05;1.90;;;1.00;;
68655;SDS011;55638;51.122;13.606;2023-08-08T05:42:38;2.55;;;1.20;;
68655;SDS011;55638;51.122;13.606;2023-08-08T05:44:10;2.42;;;1.10;;
68655;SDS011;55638;51.122;13.606;2023-08-08T05:45:43;1.48;;;1.20;;
68655;SDS011;55638;51.122;13.606;2023-08-08T05:47:15;2.00;;;1.20;;
68655;SDS011;55638;51.122;13.606;2023-08-08T05:48:47;3.53;;;0.93;;
68655;SDS011;55638;51.122;13.606;2023-08-08T05:50:19;0.98;;;0.80;;
68655;SDS011;55638;51.122;13.606;2023-08-08T05:51:51;1.52;;;1.00;;
68655;SDS011;55638;51.122;13.606;2023-08-08T05:53:23;2.17;;;1.25;;
68655;SDS011;55638;51.122;13.606;2023-08-08T05:54:55;2.15;;;0.85;;
68655;SDS011;55638;51.122;13.606;2023-08-08T05:56:28;2.28;;;0.90;;
68655;SDS011;55638;51.122;13.606;2023-08-08T05:58:07;1.20;;;1.10;;
68655;SDS011;55638;51.122;13.606;2023-08-08T05:59:40;1.30;;;0.95;;
68655;SDS011;55638;51.122;13.606;2023-08-08T06:01:12;1.58;;;1.00;;
68655;SDS011;55638;51.122;13.606;2023-08-08T06:02:44;2.05;;;1.08;;
68655;SDS011;55638;51.122;13.606;2023-08-08T06:04:16;1.40;;;1.00;;
68655;SDS011;55638;51.122;13.606;2023-08-08T06:05:48;1.40;;;0.90;;
68655;SDS011;55638;51.122;13.606;2023-08-08T06:07:20;1.27;;;0.93;;
68655;SDS011;55638;51.122;13.606;2023-08-08T06:08:52;2.70;;;1.20;;
68655;SDS011;55638;51.122;13.606;2023-08-08T06:10:24;2.28;;;1.20;;
68655;SDS011;55638;51.122;13.606;2023-08-08T06:11:56;1.45;;;1.05;;
68655;SDS011;55638;51.122;13.606;2023-08-08T06:13:29;1.30;;;0.82;;
68655;SDS011;55638;51.122;13.606;2023-08-08T06:15:01;1.15;;;0.90;;
68655;SDS011;55638;51.122;13.606;2023-08-08T06:16:35;1.00;;;0.88;;
68655;SDS011;55638;51.122;13.606;2023-08-08T06:18:07;1.48;;;1.10;;
68655;SDS011;55638;51.122;13.606;2023-08-08T06:19:39;3.47;;;1.15;;
68655;SDS011;55638;51.122;13.606;2023-08-08T06:21:11;1.35;;;0.90;;
68655;SDS011;55638;51.122;13.606;2023-08-08T06:22:43;1.98;;;0.93;;
68655;SDS011;55638;51.122;13.606;2023-08-08T06:24:15;1.85;;;1.00;;
68655;SDS011;55638;51.122;13.606;2023-08-08T06:25:47;1.88;;;1.00;;
68655;SDS011;55638;51.122;13.606;2023-08-08T06:27:19;0.93;;;0.75;;
68655;SDS011;55638;51.122;13.606;2023-08-08T06:28:51;1.58;;;1.10;;
68655;SDS011;55638;51.122;13.606;2023-08-08T06:30:23;1.65;;;0.85;;
68655;SDS011;55638;51.122;13.606;2023-08-08T06:31:55;1.20;;;0.70;;
68655;SDS011;55638;51.122;13.606;2023-08-08T06:33:27;1.42;;;0.88;;
68655;SDS011;55638;51.122;13.606;2023-08-08T06:34:59;1.50;;;0.80;;
68655;SDS011;55638;51.122;13.606;2023-08-08T06:36:32;1.90;;;1.30;;
68655;SDS011;55638;51.122;13.606;2023-08-08T06:38:04;2.10;;;0.90;;
68655;SDS011;55638;51.122;13.606;2023-08-08T06:39:36;1.58;;;1.08;;
68655;SDS011;55638;51.122;13.606;2023-08-08T06:41:28;1.67;;;0.90;;
68655;SDS011;55638;51.122;13.606;2023-08-08T06:43:19;1.80;;;1.10;;
68655;SDS011;55638;51.122;13.606;2023-08-08T06:45:09;1.30;;;0.80;;
68655;SDS011;55638;51.122;13.606;2023-08-08T06:46:42;1.30;;;0.80;;
68655;SDS011;55638;51.122;13.606;2023-08-08T06:48:14;2.55;;;1.17;;
68655;SDS011;55638;51.122;13.606;2023-08-08T06:49:46;2.65;;;1.00;;
68655;SDS011;55638;51.122;13.606;2023-08-08T06:51:18;1.65;;;1.00;;
68655;SDS011;55638;51.122;13.606;2023-08-08T06:52:50;1.73;;;0.80;;
68655;SDS011;55638;51.122;13.606;2023-08-08T06:54:22;1.15;;;0.80;;
68655;SDS011;55638;51.122;13.606;2023-08-08T06:55:54;1.77;;;0.98;;
68655;SDS011;55638;51.122;13.606;2023-08-08T06:57:26;1.17;;;0.90;;
68655;SDS011;55638;51.122;13.606;2023-08-08T06:58:58;1.48;;;0.85;;
68655;SDS011;55638;51.122;13.606;2023-08-08T07:00:30;1.48;;;0.90;;
68655;SDS011;55638;51.122;13.606;2023-08-08T07:02:02;1.95;;;0.90;;
68655;SDS011;55638;51.122;13.606;2023-08-08T07:03:35;2.53;;;1.10;;
68655;SDS011;55638;51.122;13.606;2023-08-08T07:05:07;3.80;;;1.08;;
68655;SDS011;55638;51.122;13.606;2023-08-08T07:06:42;1.40;;;0.88;;
68655;SDS011;55638;51.122;13.606;2023-08-08T07:08:15;1.80;;;0.60;;
68655;SDS011;55638;51.122;13.606;2023-08-08T07:09:47;1.60;;;1.13;;
68655;SDS011;55638;51.122;13.606;2023-08-08T07:11:20;1.35;;;0.90;;
68655;SDS011;55638;51.122;13.606;2023-08-08T07:12:53;1.23;;;1.00;;
68655;SDS011;55638;51.122;13.606;2023-08-08T07:14:25;3.05;;;1.23;;
68655;SDS011;55638;51.122;13.606;2023-08-08T07:15:57;2.05;;;0.80;;
68655;SDS011;55638;51.122;13.606;2023-08-08T07:17:30;1.00;;;0.80;;
68655;SDS011;55638;51.122;13.606;2023-08-08T07:19:02;1.25;;;1.00;;
68655;SDS011;55638;51.122;13.606;2023-08-08T07:20:34;1.45;;;0.90;;
68655;SDS011;55638;51.122;13.606;2023-08-08T07:22:06;1.60;;;1.00;;
68655;SDS011;55638;51.122;13.606;2023-08-08T07:23:40;0.80;;;0.77;;
68655;SDS011;55638;51.122;13.606;2023-08-08T07:25:12;1.40;;;0.80;;
68655;SDS011;55638;51.122;13.606;2023-08-08T07:26:44;1.77;;;0.85;;
68655;SDS011;55638;51.122;13.606;2023-08-08T07:28:15;1.88;;;1.05;;
68655;SDS011;55638;51.122;13.606;2023-08-08T07:29:47;1.95;;;1.10;;
68655;SDS011;55638;51.122;13.606;2023-08-08T07:31:19;2.17;;;1.20;;
68655;SDS011;55638;51.122;13.606;2023-08-08T07:32:51;1.05;;;0.90;;
68655;SDS011;55638;51.122;13.606;2023-08-08T07:34:23;1.25;;;1.00;;
68655;SDS011;55638;51.122;13.606;2023-08-08T07:35:56;0.98;;;0.70;;
68655;SDS011;55638;51.122;13.606;2023-08-08T07:37:28;1.15;;;0.90;;
68655;SDS011;55638;51.122;13.606;2023-08-08T07:39:00;1.63;;;1.05;;
68655;SDS011;55638;51.122;13.606;2023-08-08T07:40:32;2.15;;;1.30;;
68655;SDS011;55638;51.122;13.606;2023-08-08T07:42:04;1.38;;;0.75;;
68655;SDS011;55638;51.122;13.606;2023-08-08T07:43:36;0.98;;;0.80;;
68655;SDS011;55638;51.122;13.606;2023-08-08T07:45:08;1.58;;;1.08;;
68655;SDS011;55638;51.122;13.606;2023-08-08T07:46:41;1.58;;;1.10;;
68655;SDS011;55638;51.122;13.606;2023-08-08T07:48:13;1.25;;;0.90;;
68655;SDS011;55638;51.122;13.606;2023-08-08T07:49:44;1.20;;;0.80;;
68655;SDS011;55638;51.122;13.606;2023-08-08T07:51:16;1.33;;;1.02;;
68655;SDS011;55638;51.122;13.606;2023-08-08T07:52:49;2.13;;;1.00;;
68655;SDS011;55638;51.122;13.606;2023-08-08T07:54:20;2.60;;;0.88;;
68655;SDS011;55638;51.122;13.606;2023-08-08T07:55:52;1.42;;;0.90;;
68655;SDS011;55638;51.122;13.606;2023-08-08T07:57:26;1.17;;;0.90;;
68655;SDS011;55638;51.122;13.606;2023-08-08T07:58:58;1.25;;;1.00;;
68655;SDS011;55638;51.122;13.606;2023-08-08T08:00:31;1.52;;;0.82;;
68655;SDS011;55638;51.122;13.606;2023-08-08T08:02:03;1.60;;;0.88;;
68655;SDS011;55638;51.122;13.606;2023-08-08T08:03:35;1.42;;;1.10;;
68655;SDS011;55638;51.122;13.606;2023-08-08T08:05:07;1.27;;;0.85;;
68655;SDS011;55638;51.122;13.606;2023-08-08T08:06:40;1.20;;;1.00;;
68655;SDS011;55638;51.122;13.606;2023-08-08T08:08:14;1.20;;;1.00;;
68655;SDS011;55638;51.122;13.606;2023-08-08T08:09:46;0.85;;;0.85;;
68655;SDS011;55638;51.122;13.606;2023-08-08T08:11:18;1.00;;;0.73;;
68655;SDS011;55638;51.122;13.606;2023-08-08T08:12:51;1.05;;;0.80;;
68655;SDS011;55638;51.122;13.606;2023-08-08T08:14:29;1.05;;;0.80;;
68655;SDS011;55638;51.122;13.606;2023-08-08T08:16:01;1.73;;;0.80;;
68655;SDS011;55638;51.122;13.606;2023-08-08T08:17:33;1.30;;;0.90;;
68655;SDS011;55638;51.122;13.606;2023-08-08T08:19:05;0.90;;;0.80;;
68655;SDS011;55638;51.122;13.606;2023-08-08T08:20:37;1.25;;;0.90;;
68655;SDS011;55638;51.122;13.606;2023-08-08T08:22:09;1.58;;;0.70;;
68655;SDS011;55638;51.122;13.606;2023-08-08T08:23:41;1.45;;;0.88;;
68655;SDS011;55638;51.122;13.606;2023-08-08T08:25:13;0.90;;;0.80;;
68655;SDS011;55638;51.122;13.606;2023-08-08T08:26:46;1.60;;;0.80;;
68655;SDS011;55638;51.122;13.606;2023-08-08T08:28:18;1.23;;;0.80;;
68655;SDS011;55638;51.122;13.606;2023-08-08T08:29:50;1.58;;;0.80;;
68655;SDS011;55638;51.122;13.606;2023-08-08T08:31:22;1.25;;;0.80;;
68655;SDS011;55638;51.122;13.606;2023-08-08T08:32:54;0.73;;;0.68;;
68655;SDS011;55638;51.122;13.606;2023-08-08T08:34:26;2.70;;;0.80;;
68655;SDS011;55638;51.122;13.606;2023-08-08T08:35:58;0.90;;;0.63;;
68655;SDS011;55638;51.122;13.606;2023-08-08T08:37:30;1.15;;;0.70;;
68655;SDS011;55638;51.122;13.606;2023-08-08T08:39:03;1.30;;;0.68;;
68655;SDS011;55638;51.122;13.606;2023-08-08T08:40:36;1.10;;;0.60;;
68655;SDS011;55638;51.122;13.606;2023-08-08T08:42:09;1.23;;;0.60;;
68655;SDS011;55638;51.122;13.606;2023-08-08T08:43:47;1.00;;;0.65;;
68655;SDS011;55638;51.122;13.606;2023-08-08T08:45:20;2.05;;;1.10;;
68655;SDS011;55638;51.122;13.606;2023-08-08T08:46:53;1.30;;;0.70;;
68655;SDS011;55638;51.122;13.606;2023-08-08T08:48:27;0.80;;;0.60;;
68655;SDS011;55638;51.122;13.606;2023-08-08T08:49:59;0.80;;;0.60;;
68655;SDS011;55638;51.122;13.606;2023-08-08T08:51:34;2.13;;;0.60;;
68655;SDS011;55638;51.122;13.606;2023-08-08T08:53:10;1.35;;;0.57;;
68655;SDS011;55638;51.122;13.606;2023-08-08T08:54:44;1.33;;;0.70;;
68655;SDS011;55638;51.122;13.606;2023-08-08T08:56:16;1.45;;;0.68;;
68655;SDS011;55638;51.122;13.606;2023-08-08T08:57:50;1.10;;;0.60;;
68655;SDS011;55638;51.122;13.606;2023-08-08T08:59:22;1.20;;;0.70;;
68655;SDS011;55638;51.122;13.606;2023-08-08T09:00:54;0.80;;;0.60;;
68655;SDS011;55638;51.122;13.606;2023-08-08T09:02:28;0.75;;;0.60;;
68655;SDS011;55638;51.122;13.606;2023-08-08T09:04:00;1.20;;;0.90;;
68655;SDS011;55638;51.122;13.606;2023-08-08T09:05:34;1.23;;;0.80;;
68655;SDS011;55638;51.122;13.606;2023-08-08T09:07:07;1.20;;;0.90;;
68655;SDS011;55638;51.122;13.606;2023-08-08T09:08:40;1.10;;;0.80;;
68655;SDS011;55638;51.122;13.606;2023-08-08T09:10:13;1.23;;;0.75;;
68655;SDS011;55638;51.122;13.606;2023-08-08T09:11:48;1.00;;;0.70;;